sensor_id;sensor_type;location;lat;lon;timestamp;temperature;humidity
52565;DHT22;38460;53.106;7.004;2023-04-30T00:02:11;6.00;99.90
52565;DHT22;38460;53.106;7.004;2023-04-30T00:04:37;6.00;99.90
52565;DHT22;38460;53.106;7.004;2023-04-30T00:07:03;6.00;99.90
52565;DHT22;38460;53.106;7.004;2023-04-30T00:09:29;6.00;99.90
52565;DHT22;38460;53.106;7.004;2023-04-30T00:11:54;6.00;99.90
52565;DHT22;38460;53.106;7.004;2023-04-30T00:14:20;5.90;99.90
52565;DHT22;38460;53.106;7.004;2023-04-30T00:16:46;5.90;99.90
52565;DHT22;38460;53.106;7.004;2023-04-30T00:19:12;5.90;99.90
52565;DHT22;38460;53.106;7.004;2023-04-30T00:21:38;5.90;99.90
52565;DHT22;38460;53.106;7.004;2023-04-30T00:24:04;5.90;99.90
52565;DHT22;38460;53.106;7.004;2023-04-30T00:26:30;5.80;99.90
52565;DHT22;38460;53.106;7.004;2023-04-30T00:28:56;5.80;99.90
52565;DHT22;38460;53.106;7.004;2023-04-30T00:31:21;5.80;99.90
52565;DHT22;38460;53.106;7.004;2023-04-30T00:33:47;6.30;99.90
52565;DHT22;38460;53.106;7.004;2023-04-30T00:36:13;5.70;99.90
52565;DHT22;38460;53.106;7.004;2023-04-30T00:38:38;5.70;99.90
52565;DHT22;38460;53.106;7.004;2023-04-30T00:41:04;5.70;99.90
52565;DHT22;38460;53.106;7.004;2023-04-30T00:43:30;5.70;99.90
52565;DHT22;38460;53.106;7.004;2023-04-30T00:45:56;5.70;99.90
52565;DHT22;38460;53.106;7.004;2023-04-30T00:48:23;5.70;99.90
52565;DHT22;38460;53.106;7.004;2023-04-30T00:50:50;5.60;99.90
52565;DHT22;38460;53.106;7.004;2023-04-30T00:53:16;5.60;99.90
52565;DHT22;38460;53.106;7.004;2023-04-30T00:55:43;5.60;99.90
52565;DHT22;38460;53.106;7.004;2023-04-30T00:58:09;5.60;99.90
52565;DHT22;38460;53.106;7.004;2023-04-30T01:00:35;5.60;99.90
52565;DHT22;38460;53.106;7.004;2023-04-30T01:03:01;5.50;99.90
52565;DHT22;38460;53.106;7.004;2023-04-30T01:05:26;5.50;99.90
52565;DHT22;38460;53.106;7.004;2023-04-30T01:07:54;5.50;99.90
52565;DHT22;38460;53.106;7.004;2023-04-30T01:10:22;5.50;99.90
52565;DHT22;38460;53.106;7.004;2023-04-30T01:15:37;5.50;99.90
52565;DHT22;38460;53.106;7.004;2023-04-30T01:20:43;5.40;99.90
52565;DHT22;38460;53.106;7.004;2023-04-30T01:26:27;5.40;99.90
52565;DHT22;38460;53.106;7.004;2023-04-30T01:28:56;5.30;99.90
52565;DHT22;38460;53.106;7.004;2023-04-30T01:31:23;5.30;99.90
52565;DHT22;38460;53.106;7.004;2023-04-30T01:33:52;5.30;99.90
52565;DHT22;38460;53.106;7.004;2023-04-30T01:36:38;5.20;99.90
52565;DHT22;38460;53.106;7.004;2023-04-30T01:41:57;5.20;99.90
52565;DHT22;38460;53.106;7.004;2023-04-30T01:47:23;5.10;99.90
52565;DHT22;38460;53.106;7.004;2023-04-30T01:52:45;5.10;99.90
52565;DHT22;38460;53.106;7.004;2023-04-30T01:55:20;5.00;99.90
52565;DHT22;38460;53.106;7.004;2023-04-30T01:57:59;5.00;99.90
52565;DHT22;38460;53.106;7.004;2023-04-30T02:00:27;5.00;99.90
52565;DHT22;38460;53.106;7.004;2023-04-30T02:02:53;4.90;99.90
52565;DHT22;38460;53.106;7.004;2023-04-30T02:05:19;4.90;99.90
52565;DHT22;38460;53.106;7.004;2023-04-30T02:07:47;4.90;99.90
52565;DHT22;38460;53.106;7.004;2023-04-30T02:10:16;4.90;99.90
52565;DHT22;38460;53.106;7.004;2023-04-30T02:12:43;4.90;99.90
52565;DHT22;38460;53.106;7.004;2023-04-30T02:15:09;4.80;99.90
52565;DHT22;38460;53.106;7.004;2023-04-30T02:17:35;4.80;99.90
52565;DHT22;38460;53.106;7.004;2023-04-30T02:20:01;4.80;99.90
52565;DHT22;38460;53.106;7.004;2023-04-30T02:22:27;4.80;99.90
52565;DHT22;38460;53.106;7.004;2023-04-30T02:24:53;4.80;99.90
52565;DHT22;38460;53.106;7.004;2023-04-30T02:27:22;4.80;99.90
52565;DHT22;38460;53.106;7.004;2023-04-30T02:29:48;4.80;99.90
52565;DHT22;38460;53.106;7.004;2023-04-30T02:32:14;4.70;99.90
52565;DHT22;38460;53.106;7.004;2023-04-30T02:34:40;4.70;99.90
52565;DHT22;38460;53.106;7.004;2023-04-30T02:37:06;4.70;99.90
52565;DHT22;38460;53.106;7.004;2023-04-30T02:39:32;4.70;99.90
52565;DHT22;38460;53.106;7.004;2023-04-30T02:41:58;4.70;99.90
52565;DHT22;38460;53.106;7.004;2023-04-30T02:44:24;4.70;99.90
52565;DHT22;38460;53.106;7.004;2023-04-30T02:46:50;4.60;99.90
52565;DHT22;38460;53.106;7.004;2023-04-30T02:49:16;4.70;99.90
52565;DHT22;38460;53.106;7.004;2023-04-30T02:51:41;4.60;99.90
52565;DHT22;38460;53.106;7.004;2023-04-30T02:54:07;4.60;99.90
52565;DHT22;38460;53.106;7.004;2023-04-30T02:56:33;4.60;99.90
52565;DHT22;38460;53.106;7.004;2023-04-30T02:58:59;4.60;99.90
52565;DHT22;38460;53.106;7.004;2023-04-30T03:01:25;4.60;99.90
52565;DHT22;38460;53.106;7.004;2023-04-30T03:03:51;4.60;99.90
52565;DHT22;38460;53.106;7.004;2023-04-30T03:06:17;4.60;99.90
52565;DHT22;38460;53.106;7.004;2023-04-30T03:08:43;4.60;99.90
52565;DHT22;38460;53.106;7.004;2023-04-30T03:11:08;4.50;99.90
52565;DHT22;38460;53.106;7.004;2023-04-30T03:13:34;4.50;99.90
52565;DHT22;38460;53.106;7.004;2023-04-30T03:16:01;4.50;99.90
52565;DHT22;38460;53.106;7.004;2023-04-30T03:18:29;4.50;99.90
52565;DHT22;38460;53.106;7.004;2023-04-30T03:20:55;4.40;99.90
52565;DHT22;38460;53.106;7.004;2023-04-30T03:23:22;4.40;99.90
52565;DHT22;38460;53.106;7.004;2023-04-30T03:25:48;4.50;99.90
52565;DHT22;38460;53.106;7.004;2023-04-30T03:28:14;4.40;99.90
52565;DHT22;38460;53.106;7.004;2023-04-30T03:30:40;4.40;99.90
52565;DHT22;38460;53.106;7.004;2023-04-30T03:33:06;4.40;99.90
52565;DHT22;38460;53.106;7.004;2023-04-30T03:35:33;4.40;99.90
52565;DHT22;38460;53.106;7.004;2023-04-30T03:37:59;4.40;99.90
52565;DHT22;38460;53.106;7.004;2023-04-30T03:40:25;4.40;99.90
52565;DHT22;38460;53.106;7.004;2023-04-30T03:42:51;4.40;99.90
52565;DHT22;38460;53.106;7.004;2023-04-30T03:45:17;4.50;99.90
52565;DHT22;38460;53.106;7.004;2023-04-30T03:47:43;4.40;99.90
52565;DHT22;38460;53.106;7.004;2023-04-30T03:50:10;4.30;99.90
52565;DHT22;38460;53.106;7.004;2023-04-30T03:52:36;4.30;99.90
52565;DHT22;38460;53.106;7.004;2023-04-30T03:55:05;4.30;99.90
52565;DHT22;38460;53.106;7.004;2023-04-30T03:57:32;4.30;99.90
52565;DHT22;38460;53.106;7.004;2023-04-30T03:59:58;4.20;99.90
52565;DHT22;38460;53.106;7.004;2023-04-30T04:02:24;4.10;99.90
52565;DHT22;38460;53.106;7.004;2023-04-30T04:04:50;4.10;99.90
52565;DHT22;38460;53.106;7.004;2023-04-30T04:07:16;4.10;99.90
52565;DHT22;38460;53.106;7.004;2023-04-30T04:09:42;4.10;99.90
52565;DHT22;38460;53.106;7.004;2023-04-30T04:12:08;4.10;99.90
52565;DHT22;38460;53.106;7.004;2023-04-30T04:14:34;4.10;99.90
52565;DHT22;38460;53.106;7.004;2023-04-30T04:17:00;4.10;99.90
52565;DHT22;38460;53.106;7.004;2023-04-30T04:19:26;4.10;99.90
52565;DHT22;38460;53.106;7.004;2023-04-30T04:21:52;4.10;99.90
52565;DHT22;38460;53.106;7.004;2023-04-30T04:24:18;4.10;99.90
52565;DHT22;38460;53.106;7.004;2023-04-30T04:26:44;4.10;99.90
52565;DHT22;38460;53.106;7.004;2023-04-30T04:29:10;4.10;99.90
52565;DHT22;38460;53.106;7.004;2023-04-30T04:31:37;4.10;99.90
52565;DHT22;38460;53.106;7.004;2023-04-30T04:34:03;4.00;99.90
52565;DHT22;38460;53.106;7.004;2023-04-30T04:36:30;4.00;99.90
52565;DHT22;38460;53.106;7.004;2023-04-30T04:38:57;4.10;99.90
52565;DHT22;38460;53.106;7.004;2023-04-30T04:41:33;4.00;99.90
52565;DHT22;38460;53.106;7.004;2023-04-30T04:44:00;4.10;99.90
52565;DHT22;38460;53.106;7.004;2023-04-30T04:46:27;4.10;99.90
52565;DHT22;38460;53.106;7.004;2023-04-30T04:48:54;4.10;99.90
52565;DHT22;38460;53.106;7.004;2023-04-30T04:51:20;4.10;99.90
52565;DHT22;38460;53.106;7.004;2023-04-30T04:53:46;4.10;99.90
52565;DHT22;38460;53.106;7.004;2023-04-30T04:56:12;4.20;99.90
52565;DHT22;38460;53.106;7.004;2023-04-30T04:58:38;4.20;99.90
52565;DHT22;38460;53.106;7.004;2023-04-30T05:01:04;4.30;99.90
52565;DHT22;38460;53.106;7.004;2023-04-30T05:03:34;4.40;99.90
52565;DHT22;38460;53.106;7.004;2023-04-30T05:06:02;4.40;99.90
52565;DHT22;38460;53.106;7.004;2023-04-30T05:08:28;4.40;99.90
52565;DHT22;38460;53.106;7.004;2023-04-30T05:10:54;4.50;99.90
52565;DHT22;38460;53.106;7.004;2023-04-30T05:13:20;4.50;99.90
52565;DHT22;38460;53.106;7.004;2023-04-30T05:15:48;4.60;99.90
52565;DHT22;38460;53.106;7.004;2023-04-30T05:18:14;4.60;99.90
52565;DHT22;38460;53.106;7.004;2023-04-30T05:20:39;4.70;99.90
52565;DHT22;38460;53.106;7.004;2023-04-30T05:23:05;4.80;99.90
52565;DHT22;38460;53.106;7.004;2023-04-30T05:25:31;4.80;99.90
52565;DHT22;38460;53.106;7.004;2023-04-30T05:27:57;4.90;99.90
52565;DHT22;38460;53.106;7.004;2023-04-30T05:30:23;4.90;99.90
52565;DHT22;38460;53.106;7.004;2023-04-30T05:32:48;5.00;99.90
52565;DHT22;38460;53.106;7.004;2023-04-30T05:35:17;5.00;99.90
52565;DHT22;38460;53.106;7.004;2023-04-30T05:37:43;5.10;99.90
52565;DHT22;38460;53.106;7.004;2023-04-30T05:40:10;5.10;99.90
52565;DHT22;38460;53.106;7.004;2023-04-30T05:42:36;5.20;99.90
52565;DHT22;38460;53.106;7.004;2023-04-30T05:45:03;5.30;99.90
52565;DHT22;38460;53.106;7.004;2023-04-30T05:47:29;5.40;99.90
52565;DHT22;38460;53.106;7.004;2023-04-30T05:49:55;5.40;99.90
52565;DHT22;38460;53.106;7.004;2023-04-30T05:52:22;5.50;99.90
52565;DHT22;38460;53.106;7.004;2023-04-30T05:54:48;5.50;99.90
52565;DHT22;38460;53.106;7.004;2023-04-30T05:57:14;5.60;99.90
52565;DHT22;38460;53.106;7.004;2023-04-30T05:59:39;5.60;99.90
52565;DHT22;38460;53.106;7.004;2023-04-30T06:02:05;5.60;99.90
52565;DHT22;38460;53.106;7.004;2023-04-30T06:04:31;5.70;99.90
52565;DHT22;38460;53.106;7.004;2023-04-30T06:06:57;5.70;99.90
52565;DHT22;38460;53.106;7.004;2023-04-30T06:09:23;5.80;99.90
52565;DHT22;38460;53.106;7.004;2023-04-30T06:11:49;5.90;99.90
52565;DHT22;38460;53.106;7.004;2023-04-30T06:14:19;5.90;99.90
52565;DHT22;38460;53.106;7.004;2023-04-30T06:16:47;6.00;99.90
52565;DHT22;38460;53.106;7.004;2023-04-30T06:19:13;6.10;99.90
52565;DHT22;38460;53.106;7.004;2023-04-30T06:21:38;6.20;99.90
52565;DHT22;38460;53.106;7.004;2023-04-30T06:24:04;6.30;99.90
52565;DHT22;38460;53.106;7.004;2023-04-30T06:26:31;6.40;99.90
52565;DHT22;38460;53.106;7.004;2023-04-30T06:28:57;6.50;99.90
52565;DHT22;38460;53.106;7.004;2023-04-30T06:31:22;6.60;99.90
52565;DHT22;38460;53.106;7.004;2023-04-30T06:33:48;6.70;99.90
52565;DHT22;38460;53.106;7.004;2023-04-30T06:36:15;6.80;99.90
52565;DHT22;38460;53.106;7.004;2023-04-30T06:38:40;6.90;99.90
52565;DHT22;38460;53.106;7.004;2023-04-30T06:41:07;6.90;99.90
52565;DHT22;38460;53.106;7.004;2023-04-30T06:43:33;7.00;99.90
52565;DHT22;38460;53.106;7.004;2023-04-30T06:45:59;7.10;99.90
52565;DHT22;38460;53.106;7.004;2023-04-30T06:48:25;7.10;99.90
52565;DHT22;38460;53.106;7.004;2023-04-30T06:50:51;7.20;99.90
52565;DHT22;38460;53.106;7.004;2023-04-30T06:53:17;7.30;99.90
52565;DHT22;38460;53.106;7.004;2023-04-30T06:55:44;7.30;99.90
52565;DHT22;38460;53.106;7.004;2023-04-30T06:58:13;7.40;99.90
52565;DHT22;38460;53.106;7.004;2023-04-30T07:00:39;7.50;99.90
52565;DHT22;38460;53.106;7.004;2023-04-30T07:03:05;7.50;99.90
52565;DHT22;38460;53.106;7.004;2023-04-30T07:05:31;7.60;99.90
52565;DHT22;38460;53.106;7.004;2023-04-30T07:07:59;7.70;99.90
52565;DHT22;38460;53.106;7.004;2023-04-30T07:10:24;7.80;99.90
52565;DHT22;38460;53.106;7.004;2023-04-30T07:12:50;7.80;99.90
52565;DHT22;38460;53.106;7.004;2023-04-30T07:15:16;7.90;99.90
52565;DHT22;38460;53.106;7.004;2023-04-30T07:17:42;8.00;99.90
52565;DHT22;38460;53.106;7.004;2023-04-30T07:20:08;8.00;99.90
52565;DHT22;38460;53.106;7.004;2023-04-30T07:22:34;8.10;99.90
52565;DHT22;38460;53.106;7.004;2023-04-30T07:25:00;8.10;99.90
52565;DHT22;38460;53.106;7.004;2023-04-30T07:27:26;8.20;99.90
52565;DHT22;38460;53.106;7.004;2023-04-30T07:29:54;8.20;99.90
52565;DHT22;38460;53.106;7.004;2023-04-30T07:32:21;8.30;99.90
52565;DHT22;38460;53.106;7.004;2023-04-30T07:34:47;8.40;99.90
52565;DHT22;38460;53.106;7.004;2023-04-30T07:37:13;8.40;99.90
52565;DHT22;38460;53.106;7.004;2023-04-30T07:39:39;8.50;99.90
52565;DHT22;38460;53.106;7.004;2023-04-30T07:42:05;8.60;99.90
52565;DHT22;38460;53.106;7.004;2023-04-30T07:44:31;8.70;99.90
52565;DHT22;38460;53.106;7.004;2023-04-30T07:46:57;8.70;99.90
52565;DHT22;38460;53.106;7.004;2023-04-30T07:49:24;8.80;99.90
52565;DHT22;38460;53.106;7.004;2023-04-30T07:51:49;8.80;99.90
52565;DHT22;38460;53.106;7.004;2023-04-30T07:54:15;8.80;99.90
52565;DHT22;38460;53.106;7.004;2023-04-30T07:56:41;8.80;99.90
52565;DHT22;38460;53.106;7.004;2023-04-30T07:59:07;8.90;99.90
52565;DHT22;38460;53.106;7.004;2023-04-30T08:01:33;8.90;99.90
52565;DHT22;38460;53.106;7.004;2023-04-30T08:03:58;9.00;99.90
52565;DHT22;38460;53.106;7.004;2023-04-30T08:06:24;9.00;99.90
52565;DHT22;38460;53.106;7.004;2023-04-30T08:08:52;9.10;99.90
52565;DHT22;38460;53.106;7.004;2023-04-30T08:11:17;9.20;99.90
52565;DHT22;38460;53.106;7.004;2023-04-30T08:13:43;9.30;99.90
52565;DHT22;38460;53.106;7.004;2023-04-30T08:16:09;9.30;99.90
52565;DHT22;38460;53.106;7.004;2023-04-30T08:18:35;9.40;99.90
52565;DHT22;38460;53.106;7.004;2023-04-30T08:21:03;9.50;99.90
52565;DHT22;38460;53.106;7.004;2023-04-30T08:23:30;9.50;99.90
52565;DHT22;38460;53.106;7.004;2023-04-30T08:25:55;9.60;99.90
52565;DHT22;38460;53.106;7.004;2023-04-30T08:28:21;9.70;99.90
52565;DHT22;38460;53.106;7.004;2023-04-30T08:30:47;9.80;99.90
52565;DHT22;38460;53.106;7.004;2023-04-30T08:33:13;9.80;99.90
52565;DHT22;38460;53.106;7.004;2023-04-30T08:35:38;9.90;99.90
52565;DHT22;38460;53.106;7.004;2023-04-30T08:38:04;10.00;99.90
52565;DHT22;38460;53.106;7.004;2023-04-30T08:40:31;10.00;99.90
52565;DHT22;38460;53.106;7.004;2023-04-30T08:43:05;10.00;99.90
52565;DHT22;38460;53.106;7.004;2023-04-30T08:45:32;10.10;99.90
52565;DHT22;38460;53.106;7.004;2023-04-30T08:47:59;10.20;99.90
52565;DHT22;38460;53.106;7.004;2023-04-30T08:50:28;10.30;99.90
52565;DHT22;38460;53.106;7.004;2023-04-30T08:52:54;10.30;99.90
52565;DHT22;38460;53.106;7.004;2023-04-30T08:55:20;10.40;99.90
52565;DHT22;38460;53.106;7.004;2023-04-30T08:57:45;10.50;99.90
52565;DHT22;38460;53.106;7.004;2023-04-30T09:00:12;10.50;99.90
52565;DHT22;38460;53.106;7.004;2023-04-30T09:02:41;10.40;99.90
52565;DHT22;38460;53.106;7.004;2023-04-30T09:05:11;10.40;99.90
52565;DHT22;38460;53.106;7.004;2023-04-30T09:07:44;10.40;99.90
52565;DHT22;38460;53.106;7.004;2023-04-30T09:10:19;10.50;99.90
52565;DHT22;38460;53.106;7.004;2023-04-30T09:12:59;10.60;99.90
52565;DHT22;38460;53.106;7.004;2023-04-30T09:15:26;10.80;99.90
52565;DHT22;38460;53.106;7.004;2023-04-30T09:18:13;10.90;99.90
52565;DHT22;38460;53.106;7.004;2023-04-30T09:21:00;11.00;99.90
52565;DHT22;38460;53.106;7.004;2023-04-30T09:23:27;11.10;99.90
52565;DHT22;38460;53.106;7.004;2023-04-30T09:25:53;11.30;99.90
52565;DHT22;38460;53.106;7.004;2023-04-30T09:28:19;11.40;99.90
52565;DHT22;38460;53.106;7.004;2023-04-30T09:30:50;11.50;99.90
52565;DHT22;38460;53.106;7.004;2023-04-30T09:33:17;11.50;99.90
52565;DHT22;38460;53.106;7.004;2023-04-30T09:35:43;11.40;99.90
52565;DHT22;38460;53.106;7.004;2023-04-30T09:38:28;11.40;99.90
52565;DHT22;38460;53.106;7.004;2023-04-30T09:40:57;11.50;99.90
52565;DHT22;38460;53.106;7.004;2023-04-30T09:43:24;11.60;99.90
52565;DHT22;38460;53.106;7.004;2023-04-30T09:45:51;11.70;99.90
52565;DHT22;38460;53.106;7.004;2023-04-30T09:48:26;11.80;99.90
52565;DHT22;38460;53.106;7.004;2023-04-30T09:50:52;11.80;99.90
52565;DHT22;38460;53.106;7.004;2023-04-30T09:53:19;11.90;99.90
52565;DHT22;38460;53.106;7.004;2023-04-30T09:55:50;12.10;99.90
52565;DHT22;38460;53.106;7.004;2023-04-30T09:58:16;12.10;99.90
52565;DHT22;38460;53.106;7.004;2023-04-30T10:00:44;12.30;99.90
52565;DHT22;38460;53.106;7.004;2023-04-30T10:03:14;12.20;99.90
52565;DHT22;38460;53.106;7.004;2023-04-30T10:05:42;12.30;99.90
52565;DHT22;38460;53.106;7.004;2023-04-30T10:08:38;12.30;99.90
52565;DHT22;38460;53.106;7.004;2023-04-30T10:11:07;12.30;99.90
52565;DHT22;38460;53.106;7.004;2023-04-30T10:16:14;12.40;99.90
52565;DHT22;38460;53.106;7.004;2023-04-30T10:18:45;12.50;99.90
52565;DHT22;38460;53.106;7.004;2023-04-30T10:21:17;12.30;99.90
52565;DHT22;38460;53.106;7.004;2023-04-30T10:23:45;12.50;99.90
52565;DHT22;38460;53.106;7.004;2023-04-30T10:26:11;12.60;99.90
52565;DHT22;38460;53.106;7.004;2023-04-30T10:28:37;12.80;99.90
52565;DHT22;38460;53.106;7.004;2023-04-30T10:31:05;13.10;99.90
52565;DHT22;38460;53.106;7.004;2023-04-30T10:33:50;13.10;99.90
52565;DHT22;38460;53.106;7.004;2023-04-30T10:38:58;13.20;99.90
52565;DHT22;38460;53.106;7.004;2023-04-30T10:41:26;13.30;99.90
52565;DHT22;38460;53.106;7.004;2023-04-30T10:43:57;13.40;99.90
52565;DHT22;38460;53.106;7.004;2023-04-30T10:46:25;13.50;99.90
52565;DHT22;38460;53.106;7.004;2023-04-30T10:48:56;13.50;99.90
52565;DHT22;38460;53.106;7.004;2023-04-30T10:51:22;13.70;99.90
52565;DHT22;38460;53.106;7.004;2023-04-30T10:53:51;13.70;99.90
52565;DHT22;38460;53.106;7.004;2023-04-30T10:56:31;13.90;99.90
52565;DHT22;38460;53.106;7.004;2023-04-30T10:58:59;14.00;99.90
52565;DHT22;38460;53.106;7.004;2023-04-30T11:01:28;14.00;99.90
52565;DHT22;38460;53.106;7.004;2023-04-30T11:04:09;14.00;99.90
52565;DHT22;38460;53.106;7.004;2023-04-30T11:06:55;14.00;99.90
52565;DHT22;38460;53.106;7.004;2023-04-30T11:09:43;13.80;99.90
52565;DHT22;38460;53.106;7.004;2023-04-30T11:12:24;13.80;98.70
52565;DHT22;38460;53.106;7.004;2023-04-30T11:15:05;13.90;99.90
52565;DHT22;38460;53.106;7.004;2023-04-30T11:17:32;14.00;99.90
52565;DHT22;38460;53.106;7.004;2023-04-30T11:20:00;14.00;99.20
52565;DHT22;38460;53.106;7.004;2023-04-30T11:22:27;14.10;99.90
52565;DHT22;38460;53.106;7.004;2023-04-30T11:25:10;14.30;99.90
52565;DHT22;38460;53.106;7.004;2023-04-30T11:27:43;14.50;99.90
52565;DHT22;38460;53.106;7.004;2023-04-30T11:30:14;14.70;99.90
52565;DHT22;38460;53.106;7.004;2023-04-30T11:32:44;14.90;99.90
52565;DHT22;38460;53.106;7.004;2023-04-30T11:35:16;15.10;99.90
52565;DHT22;38460;53.106;7.004;2023-04-30T11:37:44;15.20;99.90
52565;DHT22;38460;53.106;7.004;2023-04-30T11:40:12;15.30;99.90
52565;DHT22;38460;53.106;7.004;2023-04-30T11:42:41;15.10;99.70
52565;DHT22;38460;53.106;7.004;2023-04-30T11:45:18;15.20;99.90
52565;DHT22;38460;53.106;7.004;2023-04-30T11:47:49;15.20;99.90
52565;DHT22;38460;53.106;7.004;2023-04-30T11:50:18;15.40;99.90
52565;DHT22;38460;53.106;7.004;2023-04-30T11:52:58;15.40;99.90
52565;DHT22;38460;53.106;7.004;2023-04-30T11:55:27;15.40;99.90
52565;DHT22;38460;53.106;7.004;2023-04-30T11:57:55;15.50;99.90
52565;DHT22;38460;53.106;7.004;2023-04-30T12:00:30;15.70;99.90
52565;DHT22;38460;53.106;7.004;2023-04-30T12:02:58;15.80;99.90
52565;DHT22;38460;53.106;7.004;2023-04-30T12:05:25;16.00;99.90
52565;DHT22;38460;53.106;7.004;2023-04-30T12:08:06;16.10;99.90
52565;DHT22;38460;53.106;7.004;2023-04-30T12:10:34;16.30;99.90
52565;DHT22;38460;53.106;7.004;2023-04-30T12:13:00;16.40;99.90
52565;DHT22;38460;53.106;7.004;2023-04-30T12:15:27;16.60;99.90
52565;DHT22;38460;53.106;7.004;2023-04-30T12:17:55;16.50;99.10
52565;DHT22;38460;53.106;7.004;2023-04-30T12:20:23;16.40;98.40
52565;DHT22;38460;53.106;7.004;2023-04-30T12:22:50;16.40;98.40
52565;DHT22;38460;53.106;7.004;2023-04-30T12:25:17;16.50;98.50
52565;DHT22;38460;53.106;7.004;2023-04-30T12:27:51;16.60;99.00
52565;DHT22;38460;53.106;7.004;2023-04-30T12:30:22;16.60;98.50
52565;DHT22;38460;53.106;7.004;2023-04-30T12:32:50;16.70;99.00
52565;DHT22;38460;53.106;7.004;2023-04-30T12:35:21;16.80;99.20
52565;DHT22;38460;53.106;7.004;2023-04-30T12:37:52;16.80;97.90
52565;DHT22;38460;53.106;7.004;2023-04-30T12:40:20;17.00;98.30
52565;DHT22;38460;53.106;7.004;2023-04-30T12:42:46;17.10;98.70
52565;DHT22;38460;53.106;7.004;2023-04-30T12:45:40;17.10;98.40
52565;DHT22;38460;53.106;7.004;2023-04-30T12:47:59;17.20;98.10
52565;DHT22;38460;53.106;7.004;2023-04-30T12:50:25;17.30;98.60
52565;DHT22;38460;53.106;7.004;2023-04-30T12:52:51;17.50;98.40
52565;DHT22;38460;53.106;7.004;2023-04-30T12:55:20;17.60;98.00
52565;DHT22;38460;53.106;7.004;2023-04-30T13:03:10;17.60;93.40
52565;DHT22;38460;53.106;7.004;2023-04-30T13:05:36;17.50;95.40
52565;DHT22;38460;53.106;7.004;2023-04-30T13:08:02;17.60;96.10
52565;DHT22;38460;53.106;7.004;2023-04-30T13:10:31;17.60;95.80
52565;DHT22;38460;53.106;7.004;2023-04-30T13:12:57;17.60;95.80
52565;DHT22;38460;53.106;7.004;2023-04-30T13:15:23;17.20;93.80
52565;DHT22;38460;53.106;7.004;2023-04-30T13:17:49;17.50;95.50
52565;DHT22;38460;53.106;7.004;2023-04-30T13:20:15;17.60;95.80
52565;DHT22;38460;53.106;7.004;2023-04-30T13:22:41;17.90;96.30
52565;DHT22;38460;53.106;7.004;2023-04-30T13:25:07;17.80;94.60
52565;DHT22;38460;53.106;7.004;2023-04-30T13:27:33;18.00;95.30
52565;DHT22;38460;53.106;7.004;2023-04-30T13:30:01;18.20;95.30
52565;DHT22;38460;53.106;7.004;2023-04-30T13:32:27;18.20;94.70
52565;DHT22;38460;53.106;7.004;2023-04-30T13:34:52;18.20;94.20
52565;DHT22;38460;53.106;7.004;2023-04-30T13:37:19;18.40;94.70
52565;DHT22;38460;53.106;7.004;2023-04-30T13:39:45;18.40;94.70
52565;DHT22;38460;53.106;7.004;2023-04-30T13:42:13;18.30;93.30
52565;DHT22;38460;53.106;7.004;2023-04-30T13:44:39;18.30;92.90
52565;DHT22;38460;53.106;7.004;2023-04-30T13:47:05;18.40;93.70
52565;DHT22;38460;53.106;7.004;2023-04-30T13:49:32;18.50;94.10
52565;DHT22;38460;53.106;7.004;2023-04-30T13:52:02;18.20;92.20
52565;DHT22;38460;53.106;7.004;2023-04-30T13:54:27;18.20;93.00
52565;DHT22;38460;53.106;7.004;2023-04-30T13:56:53;18.10;92.10
52565;DHT22;38460;53.106;7.004;2023-04-30T13:59:20;18.10;92.50
52565;DHT22;38460;53.106;7.004;2023-04-30T14:01:46;18.30;93.30
52565;DHT22;38460;53.106;7.004;2023-04-30T14:04:11;18.50;93.80
52565;DHT22;38460;53.106;7.004;2023-04-30T14:06:38;18.50;93.00
52565;DHT22;38460;53.106;7.004;2023-04-30T14:09:03;18.70;93.20
52565;DHT22;38460;53.106;7.004;2023-04-30T14:11:29;18.80;93.50
52565;DHT22;38460;53.106;7.004;2023-04-30T14:13:55;18.70;90.20
52565;DHT22;38460;53.106;7.004;2023-04-30T14:16:21;18.90;92.60
52565;DHT22;38460;53.106;7.004;2023-04-30T14:18:47;18.80;92.70
52565;DHT22;38460;53.106;7.004;2023-04-30T14:21:12;19.00;92.80
52565;DHT22;38460;53.106;7.004;2023-04-30T14:23:38;19.10;92.70
52565;DHT22;38460;53.106;7.004;2023-04-30T14:26:04;19.10;91.90
52565;DHT22;38460;53.106;7.004;2023-04-30T14:28:30;18.90;91.90
52565;DHT22;38460;53.106;7.004;2023-04-30T14:30:56;18.70;90.50
52565;DHT22;38460;53.106;7.004;2023-04-30T14:33:22;19.00;91.60
52565;DHT22;38460;53.106;7.004;2023-04-30T14:35:48;19.10;91.60
52565;DHT22;38460;53.106;7.004;2023-04-30T14:38:14;19.00;91.10
52565;DHT22;38460;53.106;7.004;2023-04-30T14:40:41;19.10;91.90
52565;DHT22;38460;53.106;7.004;2023-04-30T14:43:07;19.30;91.70
52565;DHT22;38460;53.106;7.004;2023-04-30T14:45:33;19.30;91.70
52565;DHT22;38460;53.106;7.004;2023-04-30T14:47:59;19.00;90.60
52565;DHT22;38460;53.106;7.004;2023-04-30T14:50:26;18.90;91.40
52565;DHT22;38460;53.106;7.004;2023-04-30T14:52:52;19.00;91.80
52565;DHT22;38460;53.106;7.004;2023-04-30T14:55:17;19.10;91.60
52565;DHT22;38460;53.106;7.004;2023-04-30T14:57:43;19.10;90.70
52565;DHT22;38460;53.106;7.004;2023-04-30T15:00:09;19.00;90.60
52565;DHT22;38460;53.106;7.004;2023-04-30T15:02:36;18.90;90.40
52565;DHT22;38460;53.106;7.004;2023-04-30T15:05:03;18.60;90.30
52565;DHT22;38460;53.106;7.004;2023-04-30T15:07:29;18.70;90.90
52565;DHT22;38460;53.106;7.004;2023-04-30T15:09:56;18.80;91.10
52565;DHT22;38460;53.106;7.004;2023-04-30T15:12:21;18.90;90.30
52565;DHT22;38460;53.106;7.004;2023-04-30T15:14:47;18.90;90.70
52565;DHT22;38460;53.106;7.004;2023-04-30T15:17:13;18.90;90.70
52565;DHT22;38460;53.106;7.004;2023-04-30T15:19:39;18.80;90.00
52565;DHT22;38460;53.106;7.004;2023-04-30T15:22:08;18.50;88.00
52565;DHT22;38460;53.106;7.004;2023-04-30T15:24:34;18.20;87.80
52565;DHT22;38460;53.106;7.004;2023-04-30T15:27:01;18.20;90.50
52565;DHT22;38460;53.106;7.004;2023-04-30T15:29:26;17.90;90.30
52565;DHT22;38460;53.106;7.004;2023-04-30T15:31:52;17.70;90.90
52565;DHT22;38460;53.106;7.004;2023-04-30T15:34:22;17.70;91.30
52565;DHT22;38460;53.106;7.004;2023-04-30T15:36:48;17.80;91.20
52565;DHT22;38460;53.106;7.004;2023-04-30T15:39:14;17.70;91.30
52565;DHT22;38460;53.106;7.004;2023-04-30T15:41:40;17.70;91.10
52565;DHT22;38460;53.106;7.004;2023-04-30T15:44:05;17.40;90.60
52565;DHT22;38460;53.106;7.004;2023-04-30T15:46:31;17.40;91.50
52565;DHT22;38460;53.106;7.004;2023-04-30T15:48:58;17.50;91.40
52565;DHT22;38460;53.106;7.004;2023-04-30T15:51:23;17.40;91.40
52565;DHT22;38460;53.106;7.004;2023-04-30T15:53:49;17.00;90.30
52565;DHT22;38460;53.106;7.004;2023-04-30T15:56:15;17.00;91.90
52565;DHT22;38460;53.106;7.004;2023-04-30T15:58:42;17.00;91.60
52565;DHT22;38460;53.106;7.004;2023-04-30T16:01:08;17.00;92.10
52565;DHT22;38460;53.106;7.004;2023-04-30T16:03:34;16.90;91.70
52565;DHT22;38460;53.106;7.004;2023-04-30T16:06:01;17.00;92.40
52565;DHT22;38460;53.106;7.004;2023-04-30T16:08:27;16.80;92.60
52565;DHT22;38460;53.106;7.004;2023-04-30T16:10:54;16.80;92.70